createdAt,value
2017-01-25T00:00:17.708Z,-4.94
2017-01-25T00:01:26.392Z,-4.79
2017-01-25T00:02:35.078Z,-4.83
2017-01-25T00:03:43.764Z,-4.76
2017-01-25T00:04:52.448Z,-4.76
2017-01-25T00:06:01.135Z,-4.73
2017-01-25T00:07:09.818Z,-4.67
2017-01-25T00:08:18.502Z,-4.67
2017-01-25T00:09:27.186Z,-4.61
2017-01-25T00:10:35.877Z,-4.59
2017-01-25T00:11:44.580Z,-4.58
2017-01-25T00:12:53.287Z,-4.47
2017-01-25T00:14:01.971Z,-4.49
2017-01-25T00:15:10.656Z,-4.41
2017-01-25T00:16:19.341Z,-4.42
2017-01-25T00:17:28.028Z,-4.41
2017-01-25T00:18:36.712Z,-4.38
2017-01-25T00:19:45.399Z,-4.33
2017-01-25T00:20:54.083Z,-4.27
2017-01-25T00:22:03.167Z,-4.3
2017-01-25T00:23:11.856Z,-4.24
2017-01-25T00:24:20.540Z,-4.22
2017-01-25T00:25:29.225Z,-4.19
2017-01-25T00:26:37.914Z,-4.26
2017-01-25T00:27:46.593Z,-4.13
2017-01-25T00:28:55.276Z,-4.23
2017-01-25T00:30:03.964Z,-4.17
2017-01-25T00:31:12.648Z,-4.16
2017-01-25T00:32:21.355Z,-4.17
2017-01-25T00:33:30.038Z,-4.2
2017-01-25T00:34:38.727Z,-4.19
2017-01-25T00:35:47.413Z,-4.2
2017-01-25T00:36:56.098Z,-4.12
2017-01-25T00:38:04.814Z,-4.2
2017-01-25T00:39:13.495Z,-4.16
2017-01-25T00:40:22.180Z,-4.22
2017-01-25T00:41:30.869Z,-4.2
2017-01-25T00:42:39.552Z,-4.19
2017-01-25T00:43:48.235Z,-4.19
2017-01-25T00:44:56.919Z,-4.23
2017-01-25T00:46:05.606Z,-4.19
2017-01-25T00:47:14.683Z,-4.24
2017-01-25T00:48:23.368Z,-4.17
2017-01-25T00:49:32.054Z,-4.13
2017-01-25T00:50:40.740Z,-4.19
2017-01-25T00:51:49.423Z,-4.17
2017-01-25T00:52:58.104Z,-4.2
2017-01-25T00:54:06.789Z,-4.12
2017-01-25T00:55:15.477Z,-4.09
2017-01-25T00:56:24.156Z,-3.99
2017-01-25T00:57:32.841Z,-4.08
2017-01-25T00:58:41.525Z,-4.06
2017-01-25T00:59:50.608Z,-4.09
2017-01-25T01:00:59.292Z,-4.02
2017-01-25T01:02:07.976Z,-3.94
2017-01-25T01:03:16.660Z,-4.02
2017-01-25T01:04:25.343Z,-4.04
2017-01-25T01:05:34.053Z,-4.04
2017-01-25T01:06:42.736Z,-3.91
2017-01-25T01:07:51.417Z,-3.99
2017-01-25T01:09:00.098Z,-3.98
2017-01-25T01:10:08.790Z,-3.99
2017-01-25T01:11:17.478Z,-4.06
2017-01-25T01:12:26.168Z,-3.98
2017-01-25T01:13:34.854Z,-4.05
2017-01-25T01:14:43.540Z,-3.99
2017-01-25T01:15:52.228Z,-4.05
2017-01-25T01:17:00.925Z,-4.02
2017-01-25T01:18:09.641Z,-4.04
2017-01-25T01:19:18.323Z,-4.05
2017-01-25T01:20:27.007Z,-4.04
2017-01-25T01:21:35.718Z,-4.12
2017-01-25T01:22:44.402Z,-4.19
2017-01-25T01:23:53.085Z,-4.06
2017-01-25T01:25:01.768Z,-4.06
2017-01-25T01:26:10.488Z,-4.02
2017-01-25T01:27:19.171Z,-4.08
2017-01-25T01:28:27.861Z,-4.06
2017-01-25T01:29:36.574Z,-4.04
2017-01-25T01:30:45.257Z,-4.06
2017-01-25T01:31:53.973Z,-3.98
2017-01-25T01:33:03.051Z,-4.09
2017-01-25T01:34:11.738Z,-3.98
2017-01-25T01:35:20.419Z,-3.95
2017-01-25T01:36:29.105Z,-4.04
2017-01-25T01:37:37.789Z,-3.98
2017-01-25T01:38:46.471Z,-3.99
2017-01-25T01:39:55.160Z,-4.05
2017-01-25T01:41:03.876Z,-3.9
2017-01-25T01:42:12.563Z,-3.96
2017-01-25T01:43:21.243Z,-3.9
2017-01-25T01:44:29.926Z,-3.94
2017-01-25T01:45:38.619Z,-4.04
2017-01-25T01:46:47.329Z,-3.94
2017-01-25T01:47:56.016Z,-3.9
2017-01-25T01:49:04.730Z,-3.99
2017-01-25T01:50:13.426Z,-4.01
2017-01-25T01:51:22.103Z,-3.95
2017-01-25T01:52:30.790Z,-4.02
2017-01-25T01:53:39.474Z,-4.01
2017-01-25T01:54:48.157Z,-4.05
2017-01-25T01:55:57.295Z,-3.96
2017-01-25T01:57:05.987Z,-4.05
2017-01-25T01:58:14.672Z,-3.91
2017-01-25T01:59:23.358Z,-3.91
2017-01-25T02:00:32.033Z,-4.04
2017-01-25T02:01:40.719Z,-3.95
2017-01-25T02:02:49.796Z,-3.91
2017-01-25T02:03:58.482Z,-3.94
2017-01-25T02:05:07.563Z,-4.01
2017-01-25T02:06:16.246Z,-3.98
2017-01-25T02:07:24.937Z,-3.91
2017-01-25T02:08:33.620Z,-3.95
2017-01-25T02:09:42.298Z,-3.88
2017-01-25T02:10:50.982Z,-3.94
2017-01-25T02:11:59.664Z,-3.96
2017-01-25T02:13:08.345Z,-3.96
2017-01-25T02:14:17.026Z,-3.9
2017-01-25T02:15:25.707Z,-3.91
2017-01-25T02:16:34.391Z,-3.9
2017-01-25T02:17:43.075Z,-3.91
2017-01-25T02:18:51.794Z,-3.87
2017-01-25T02:20:00.479Z,-3.84
2017-01-25T02:21:09.200Z,-3.88
2017-01-25T02:22:17.885Z,-3.85
2017-01-25T02:23:26.568Z,-3.83
2017-01-25T02:24:35.258Z,-3.81
2017-01-25T02:25:43.964Z,-3.81
2017-01-25T02:26:52.656Z,-3.84
2017-01-25T02:28:01.339Z,-3.71
2017-01-25T02:29:10.024Z,-3.77
2017-01-25T02:30:18.712Z,-3.78
2017-01-25T02:31:27.400Z,-3.81
2017-01-25T02:32:36.083Z,-3.77
2017-01-25T02:33:44.769Z,-3.78
2017-01-25T02:34:53.452Z,-3.69
2017-01-25T02:36:02.140Z,-3.75
2017-01-25T02:37:10.819Z,-3.69
2017-01-25T02:38:19.506Z,-3.81
2017-01-25T02:39:28.189Z,-3.8
2017-01-25T02:40:36.879Z,-3.75
2017-01-25T02:41:45.570Z,-3.74
2017-01-25T02:42:54.250Z,-3.68
2017-01-25T02:44:02.934Z,-3.8
2017-01-25T02:45:11.619Z,-3.81
2017-01-25T02:46:20.305Z,-3.98
2017-01-25T02:47:28.995Z,-3.96
2017-01-25T02:48:37.685Z,-4.05
2017-01-25T02:49:46.371Z,-4.19
2017-01-25T02:50:55.052Z,-4.22
2017-01-25T02:52:03.739Z,-4.16
2017-01-25T02:53:12.420Z,-4.22
2017-01-25T02:54:21.106Z,-4.31
2017-01-25T02:55:29.795Z,-4.37
2017-01-25T02:56:38.476Z,-4.41
2017-01-25T02:57:47.161Z,-4.38
2017-01-25T02:58:55.843Z,-4.37
2017-01-25T03:00:04.529Z,-4.31
2017-01-25T03:01:13.213Z,-4.37
2017-01-25T03:02:21.899Z,-4.27
2017-01-25T03:03:30.582Z,-4.31
2017-01-25T03:04:39.266Z,-4.31
2017-01-25T03:05:47.956Z,-4.34
2017-01-25T03:06:56.637Z,-4.31
2017-01-25T03:08:05.325Z,-4.27
2017-01-25T03:09:14.009Z,-4.26
2017-01-25T03:10:22.690Z,-4.24
2017-01-25T03:11:31.373Z,-4.26
2017-01-25T03:12:40.063Z,-4.22
2017-01-25T03:13:48.750Z,-4.16
2017-01-25T03:14:57.431Z,-4.09
2017-01-25T03:16:06.120Z,-4.14
2017-01-25T03:17:14.813Z,-4.19
2017-01-25T03:18:23.497Z,-4.13
2017-01-25T03:19:32.181Z,-4.17
2017-01-25T03:20:40.873Z,-4.12
2017-01-25T03:21:49.559Z,-4.12
2017-01-25T03:22:58.272Z,-4.04
2017-01-25T03:24:06.957Z,-4.08
2017-01-25T03:25:15.638Z,-4.06
2017-01-25T03:26:24.351Z,-4.04
2017-01-25T03:27:33.462Z,-4.05
2017-01-25T03:28:42.149Z,-4.08
2017-01-25T03:29:50.833Z,-4.05
2017-01-25T03:30:59.522Z,-3.99
2017-01-25T03:32:08.214Z,-3.98
2017-01-25T03:33:16.901Z,-3.98
2017-01-25T03:34:25.585Z,-3.98
2017-01-25T03:35:34.265Z,-3.99
2017-01-25T03:36:42.953Z,-3.91
2017-01-25T03:37:51.634Z,-4.02
2017-01-25T03:39:00.318Z,-4.01
2017-01-25T03:40:09.002Z,-3.88
2017-01-25T03:41:17.687Z,-4.02
2017-01-25T03:42:26.369Z,-3.96
2017-01-25T03:43:35.055Z,-3.99
2017-01-25T03:44:43.737Z,-3.9
2017-01-25T03:45:52.417Z,-4.01
2017-01-25T03:47:01.127Z,-3.95
2017-01-25T03:48:09.814Z,-3.96
2017-01-25T03:49:18.500Z,-4.02
2017-01-25T03:50:27.182Z,-3.94
2017-01-25T03:51:35.868Z,-3.88
2017-01-25T03:52:44.548Z,-3.9
2017-01-25T03:53:53.227Z,-3.91
2017-01-25T03:55:01.947Z,-3.88
2017-01-25T03:56:10.632Z,-3.85
2017-01-25T03:57:19.325Z,-3.88
2017-01-25T03:58:28.009Z,-3.94
2017-01-25T03:59:36.692Z,-3.85
2017-01-25T04:00:45.382Z,-3.88
2017-01-25T04:01:54.062Z,-3.9
2017-01-25T04:03:02.750Z,-3.91
2017-01-25T04:04:11.467Z,-3.91
2017-01-25T04:05:20.158Z,-3.88
2017-01-25T04:06:29.242Z,-3.81
2017-01-25T04:07:38.321Z,-3.77
2017-01-25T04:08:47.008Z,-3.81
2017-01-25T04:09:56.091Z,-3.77
2017-01-25T04:11:04.809Z,-3.71
2017-01-25T04:12:13.494Z,-3.71
2017-01-25T04:13:22.174Z,-3.62
2017-01-25T04:14:30.853Z,-3.62
2017-01-25T04:15:39.539Z,-3.53
2017-01-25T04:16:48.221Z,-3.58
2017-01-25T04:17:56.906Z,-3.58
2017-01-25T04:19:05.987Z,-3.51
2017-01-25T04:20:14.669Z,-3.56
2017-01-25T04:21:23.351Z,-3.53
2017-01-25T04:22:32.038Z,-3.48
2017-01-25T04:23:40.723Z,-3.47
2017-01-25T04:24:49.404Z,-3.4
2017-01-25T04:25:58.084Z,-3.43
2017-01-25T04:27:06.773Z,-3.41
2017-01-25T04:28:15.456Z,-3.26
2017-01-25T04:29:24.137Z,-3.3
2017-01-25T04:30:32.823Z,-3.23
2017-01-25T04:31:41.510Z,-3.23
2017-01-25T04:32:50.188Z,-3.14
2017-01-25T04:33:58.870Z,-3.08
2017-01-25T04:35:07.596Z,-3.08
2017-01-25T04:36:16.286Z,-3.19
2017-01-25T04:37:24.964Z,-3.05
2017-01-25T04:38:33.647Z,-3.11
2017-01-25T04:39:42.332Z,-3.2
2017-01-25T04:40:51.014Z,-3.01
2017-01-25T04:41:59.698Z,-2.99
2017-01-25T04:43:08.390Z,-2.94
2017-01-25T04:44:17.077Z,-3.02
2017-01-25T04:45:25.761Z,-2.96
2017-01-25T04:46:34.445Z,-3.04
2017-01-25T04:47:43.124Z,-3.14
2017-01-25T04:48:51.808Z,-3.01
2017-01-25T04:50:00.541Z,-3.04
2017-01-25T04:51:09.253Z,-3.05
2017-01-25T04:52:17.963Z,-3.09
2017-01-25T04:53:26.641Z,-3.14
2017-01-25T04:54:35.323Z,-3.09
2017-01-25T04:55:44.015Z,-3.14
2017-01-25T04:56:52.707Z,-3.17
2017-01-25T04:58:01.386Z,-3.15
2017-01-25T04:59:10.067Z,-3.09
2017-01-25T05:00:18.757Z,-3.09
2017-01-25T05:01:27.441Z,-3.08
2017-01-25T05:02:36.122Z,-3.04
2017-01-25T05:03:44.806Z,-3.04
2017-01-25T05:04:53.486Z,-3.09
2017-01-25T05:06:02.172Z,-3.04
2017-01-25T05:07:11.255Z,-3.09
2017-01-25T05:08:20.041Z,-3.04
2017-01-25T05:09:28.730Z,-3.09
2017-01-25T05:10:37.413Z,-3.14
2017-01-25T05:11:46.099Z,-3.22
2017-01-25T05:12:54.788Z,-3.12
2017-01-25T05:14:03.469Z,-3.17
2017-01-25T05:15:12.551Z,-3.12
2017-01-25T05:16:21.627Z,-3.27
2017-01-25T05:17:30.312Z,-3.15
2017-01-25T05:18:38.998Z,-3.14
2017-01-25T05:19:47.688Z,-3.27
2017-01-25T05:20:56.378Z,-3.23
2017-01-25T05:22:05.075Z,-3.19
2017-01-25T05:23:13.765Z,-3.26
2017-01-25T05:24:22.463Z,-3.19
2017-01-25T05:25:31.145Z,-3.09
2017-01-25T05:26:39.827Z,-3.12
2017-01-25T05:27:48.517Z,-3.17
2017-01-25T05:28:57.200Z,-3.09
2017-01-25T05:30:05.889Z,-3.08
2017-01-25T05:31:14.574Z,-3.14
2017-01-25T05:32:23.258Z,-3.11
2017-01-25T05:33:31.943Z,-3.07
2017-01-25T05:34:40.624Z,-3.14
2017-01-25T05:35:49.311Z,-3.19
2017-01-25T05:36:57.997Z,-3.2
2017-01-25T05:38:07.076Z,-3.2
2017-01-25T05:39:15.756Z,-3.19
2017-01-25T05:40:24.443Z,-3.12
2017-01-25T05:41:33.132Z,-3.12
2017-01-25T05:42:41.813Z,-3.17
2017-01-25T05:43:50.491Z,-3.14
2017-01-25T05:44:59.179Z,-3.15
2017-01-25T05:46:07.866Z,-3.12
2017-01-25T05:47:16.549Z,-3.08
2017-01-25T05:48:25.226Z,-3.25
2017-01-25T05:49:33.911Z,-3.17
2017-01-25T05:50:42.594Z,-3.22
2017-01-25T05:51:51.277Z,-3.09
2017-01-25T05:52:59.961Z,-3.17
2017-01-25T05:54:08.642Z,-3.17
2017-01-25T05:55:17.326Z,-3.12
2017-01-25T05:56:26.012Z,-3.11
2017-01-25T05:57:34.701Z,-3.23
2017-01-25T05:58:43.382Z,-3.27
2017-01-25T05:59:52.063Z,-3.2
2017-01-25T06:01:00.747Z,-3.25
2017-01-25T06:02:09.433Z,-3.2
2017-01-25T06:03:18.114Z,-3.23
2017-01-25T06:04:26.798Z,-3.29
2017-01-25T06:05:35.479Z,-3.38
2017-01-25T06:06:44.162Z,-3.4
2017-01-25T06:07:52.841Z,-3.41
2017-01-25T06:09:01.522Z,-3.4
2017-01-25T06:10:10.603Z,-3.38
2017-01-25T06:11:19.308Z,-3.43
2017-01-25T06:12:27.988Z,-3.4
2017-01-25T06:13:36.669Z,-3.36
2017-01-25T06:14:45.350Z,-3.44
2017-01-25T06:15:54.035Z,-3.4
2017-01-25T06:17:02.715Z,-3.4
2017-01-25T06:18:11.399Z,-3.44
2017-01-25T06:19:20.086Z,-3.44
2017-01-25T06:20:28.768Z,-3.62
2017-01-25T06:21:37.455Z,-3.56
2017-01-25T06:22:46.139Z,-3.62
2017-01-25T06:23:54.821Z,-3.62
2017-01-25T06:25:03.507Z,-3.69
2017-01-25T06:26:12.197Z,-3.61
2017-01-25T06:27:20.900Z,-3.64
2017-01-25T06:28:29.585Z,-3.64
2017-01-25T06:29:38.269Z,-3.61
2017-01-25T06:30:46.952Z,-3.58
2017-01-25T06:31:55.641Z,-3.62
2017-01-25T06:33:04.354Z,-3.65
2017-01-25T06:34:13.038Z,-3.65
2017-01-25T06:35:21.718Z,-3.71
2017-01-25T06:36:30.428Z,-3.66
2017-01-25T06:37:39.119Z,-3.74
2017-01-25T06:38:47.804Z,-3.71
2017-01-25T06:39:56.486Z,-3.78
2017-01-25T06:41:05.167Z,-3.83
2017-01-25T06:42:13.855Z,-3.83
2017-01-25T06:43:22.534Z,-3.85
2017-01-25T06:44:31.219Z,-3.87
2017-01-25T06:45:39.906Z,-3.84
2017-01-25T06:46:48.588Z,-3.88
2017-01-25T06:47:57.269Z,-3.87
2017-01-25T06:49:05.956Z,-3.88
2017-01-25T06:50:14.669Z,-3.88
2017-01-25T06:51:23.609Z,-3.85
2017-01-25T06:52:32.293Z,-3.91
2017-01-25T06:53:40.978Z,-3.81
2017-01-25T06:54:49.658Z,-3.81
2017-01-25T06:55:58.361Z,-3.81
2017-01-25T06:57:07.051Z,-3.81
2017-01-25T06:58:15.743Z,-3.69
2017-01-25T06:59:24.424Z,-3.69
2017-01-25T07:00:33.103Z,-3.74
2017-01-25T07:01:41.790Z,-3.77
2017-01-25T07:02:50.476Z,-3.69
2017-01-25T07:03:59.158Z,-3.69
2017-01-25T07:05:07.840Z,-3.69
2017-01-25T07:06:16.521Z,-3.64
2017-01-25T07:07:25.207Z,-3.58
2017-01-25T07:10:01.598Z,-3.62
2017-01-25T07:11:10.295Z,-3.58
2017-01-25T07:12:18.979Z,-3.55
2017-01-25T07:13:27.665Z,-3.61
2017-01-25T07:14:36.499Z,-3.62
2017-01-25T07:15:45.185Z,-3.59
2017-01-25T07:16:53.893Z,-3.48
2017-01-25T07:18:02.579Z,-3.48
2017-01-25T07:19:11.259Z,-3.5
2017-01-25T07:20:20.091Z,-3.5
2017-01-25T07:21:28.780Z,-3.48
2017-01-25T07:22:37.465Z,-3.48
2017-01-25T07:23:46.147Z,-3.47
2017-01-25T07:24:54.828Z,-3.48
2017-01-25T07:26:03.766Z,-3.44
2017-01-25T07:27:12.451Z,-3.4
2017-01-25T07:28:21.164Z,-3.36
2017-01-25T07:29:30.247Z,-3.41
2017-01-25T07:30:38.932Z,-3.47
2017-01-25T07:31:47.771Z,-3.43
2017-01-25T07:32:56.461Z,-3.37
2017-01-25T07:34:05.149Z,-3.37
2017-01-25T07:35:13.843Z,-3.36
2017-01-25T07:36:22.925Z,-3.37
2017-01-25T07:37:31.960Z,-3.43
2017-01-25T07:38:40.642Z,-3.38
2017-01-25T07:39:49.327Z,-3.38
2017-01-25T07:40:58.016Z,-3.23
2017-01-25T07:42:06.700Z,-3.23
2017-01-25T07:43:15.508Z,-3.25
2017-01-25T07:44:24.216Z,-3.36
2017-01-25T07:45:32.911Z,-3.38
2017-01-25T07:46:41.592Z,-3.33
2017-01-25T07:47:50.275Z,-3.4
2017-01-25T07:48:58.964Z,-3.48
2017-01-25T07:50:07.654Z,-3.36
2017-01-25T07:51:16.384Z,-3.41
2017-01-25T07:52:25.080Z,-3.46
2017-01-25T07:53:33.763Z,-3.41
2017-01-25T07:54:44.595Z,-3.38
2017-01-25T07:55:53.677Z,-3.3
2017-01-25T07:57:02.362Z,-3.3
2017-01-25T07:58:11.048Z,-3.29
2017-01-25T07:59:19.732Z,-3.22
2017-01-25T08:00:28.422Z,-3.36
2017-01-25T08:01:37.109Z,-3.37
2017-01-25T08:02:45.791Z,-3.41
2017-01-25T08:03:54.487Z,-3.37
2017-01-25T08:05:03.170Z,-3.47
2017-01-25T08:06:11.855Z,-3.48
2017-01-25T08:07:20.536Z,-3.55
2017-01-25T08:08:29.220Z,-3.64
2017-01-25T08:09:37.906Z,-3.68
2017-01-25T08:10:46.593Z,-3.74
2017-01-25T08:11:55.278Z,-3.8
2017-01-25T08:13:03.967Z,-3.74
2017-01-25T08:14:12.651Z,-3.81
2017-01-25T08:15:21.335Z,-3.85
2017-01-25T08:16:30.018Z,-3.78
2017-01-25T08:17:38.700Z,-3.83
2017-01-25T08:18:47.415Z,-3.83
2017-01-25T08:19:56.099Z,-3.85
2017-01-25T08:21:04.786Z,-3.8
2017-01-25T08:22:13.474Z,-3.83
2017-01-25T08:23:22.160Z,-3.78
2017-01-25T08:24:30.840Z,-3.84
2017-01-25T08:25:39.522Z,-3.81
2017-01-25T08:26:48.210Z,-3.88
2017-01-25T08:27:56.896Z,-3.8
2017-01-25T08:29:05.581Z,-3.87
2017-01-25T08:30:14.262Z,-3.96
2017-01-25T08:31:22.945Z,-3.88
2017-01-25T08:32:31.629Z,-3.96
2017-01-25T08:33:40.310Z,-3.88
2017-01-25T08:34:48.998Z,-3.84
2017-01-25T08:35:57.712Z,-3.9
2017-01-25T08:37:06.398Z,-3.91
2017-01-25T08:38:15.084Z,-3.96
2017-01-25T08:39:23.777Z,-3.94
2017-01-25T08:40:32.457Z,-3.91
2017-01-25T08:41:41.138Z,-3.87
2017-01-25T08:42:49.822Z,-3.94
2017-01-25T08:43:58.510Z,-3.88
2017-01-25T08:45:07.196Z,-3.83
2017-01-25T08:46:15.897Z,-3.78
2017-01-25T08:47:24.580Z,-3.87
2017-01-25T08:48:33.275Z,-3.81
2017-01-25T08:49:41.966Z,-3.78
2017-01-25T08:50:50.657Z,-3.8
2017-01-25T08:51:59.338Z,-3.8
2017-01-25T08:53:08.037Z,-3.74
2017-01-25T08:54:16.721Z,-3.77
2017-01-25T08:55:25.402Z,-3.75
2017-01-25T08:56:34.087Z,-3.78
2017-01-25T08:57:42.770Z,-3.8
2017-01-25T08:58:51.460Z,-3.69
2017-01-25T09:00:00.142Z,-3.68
2017-01-25T09:01:08.830Z,-3.74
2017-01-25T09:02:17.511Z,-3.71
2017-01-25T09:03:26.197Z,-3.74
2017-01-25T09:04:34.885Z,-3.74
2017-01-25T09:05:43.574Z,-3.71
2017-01-25T09:06:52.257Z,-3.68
2017-01-25T09:08:00.944Z,-3.62
2017-01-25T09:09:09.631Z,-3.66
2017-01-25T09:10:18.351Z,-3.58
2017-01-25T09:11:27.079Z,-3.59
2017-01-25T09:12:35.793Z,-3.55
2017-01-25T09:13:44.477Z,-3.5
2017-01-25T09:14:53.161Z,-3.53
2017-01-25T09:16:01.860Z,-3.48
2017-01-25T09:17:10.543Z,-3.41
2017-01-25T09:18:19.230Z,-3.44
2017-01-25T09:19:27.926Z,-3.41
2017-01-25T09:20:37.008Z,-3.4
2017-01-25T09:21:45.691Z,-3.44
2017-01-25T09:22:54.372Z,-3.44
2017-01-25T09:24:03.062Z,-3.43
2017-01-25T09:25:11.752Z,-3.41
2017-01-25T09:26:20.436Z,-3.47
2017-01-25T09:27:29.120Z,-3.5
2017-01-25T09:28:37.804Z,-3.51
2017-01-25T09:29:46.491Z,-3.62
2017-01-25T09:30:55.174Z,-3.55
2017-01-25T09:32:03.860Z,-3.58
2017-01-25T09:33:12.545Z,-3.59
2017-01-25T09:34:21.239Z,-3.59
2017-01-25T09:35:29.930Z,-3.59
2017-01-25T09:36:38.613Z,-3.51
2017-01-25T09:37:47.308Z,-3.44
2017-01-25T09:38:55.991Z,-3.43
2017-01-25T09:40:04.677Z,-3.43
2017-01-25T09:41:13.367Z,-3.38
2017-01-25T09:42:22.047Z,-3.33
2017-01-25T09:43:30.771Z,-3.4
2017-01-25T09:44:39.465Z,-3.4
2017-01-25T09:45:48.152Z,-3.43
2017-01-25T09:46:56.837Z,-3.33
2017-01-25T09:48:05.523Z,-3.36
2017-01-25T09:49:14.211Z,-3.27
2017-01-25T09:50:22.898Z,-3.08
2017-01-25T09:51:31.582Z,-3.11
2017-01-25T09:52:40.269Z,-3.07
2017-01-25T09:53:48.957Z,-3.05
2017-01-25T09:54:57.642Z,-3.11
2017-01-25T09:56:06.328Z,-3.02
2017-01-25T09:57:15.041Z,-2.91
2017-01-25T09:58:23.727Z,-2.81
2017-01-25T09:59:32.405Z,-2.76
2017-01-25T10:00:41.092Z,-2.73
2017-01-25T10:01:49.774Z,-2.72
2017-01-25T10:02:58.459Z,-2.57
2017-01-25T10:04:07.141Z,-2.54
2017-01-25T10:05:15.835Z,-2.48
2017-01-25T10:06:24.548Z,-2.52
2017-01-25T10:07:33.238Z,-2.51
2017-01-25T10:08:42.320Z,-2.44
2017-01-25T10:09:51.004Z,-2.44
2017-01-25T10:10:59.687Z,-2.47
2017-01-25T10:12:08.374Z,-2.5
2017-01-25T10:13:17.065Z,-2.34
2017-01-25T10:14:25.750Z,-2.36
2017-01-25T10:15:34.432Z,-2.42
2017-01-25T10:16:43.136Z,-2.39
2017-01-25T10:17:51.822Z,-2.44
2017-01-25T10:19:00.506Z,-2.37
2017-01-25T10:20:09.240Z,-2.34
2017-01-25T10:21:17.924Z,-2.37
2017-01-25T10:22:26.606Z,-2.34
2017-01-25T10:23:35.297Z,-2.34
2017-01-25T10:24:43.981Z,-2.29
2017-01-25T10:25:52.676Z,-2.32
2017-01-25T10:27:01.367Z,-2.36
2017-01-25T10:28:10.059Z,-2.32
2017-01-25T10:29:18.995Z,-2.33
2017-01-25T10:30:27.676Z,-2.18
2017-01-25T10:31:36.362Z,-2.26
2017-01-25T10:32:45.042Z,-2.28
2017-01-25T10:33:53.733Z,-2.2
2017-01-25T10:35:02.668Z,-2.23
2017-01-25T10:36:11.351Z,-2.22
2017-01-25T10:37:20.035Z,-2.2
2017-01-25T10:38:28.718Z,-2.15
2017-01-25T10:39:37.407Z,-2.37
2017-01-25T10:40:46.093Z,-2.32
2017-01-25T10:41:54.775Z,-2.45
2017-01-25T10:43:03.461Z,-2.48
2017-01-25T10:44:12.146Z,-2.4
2017-01-25T10:45:20.829Z,-2.55
2017-01-25T10:46:29.512Z,-2.51
2017-01-25T10:47:38.202Z,-2.55
2017-01-25T10:48:46.898Z,-2.51
2017-01-25T10:49:55.581Z,-2.52
2017-01-25T10:51:04.662Z,-2.5
2017-01-25T10:52:13.350Z,-2.52
2017-01-25T10:53:22.037Z,-2.5
2017-01-25T10:54:30.727Z,-2.42
2017-01-25T10:55:39.409Z,-2.37
2017-01-25T10:56:48.092Z,-2.44
2017-01-25T10:57:56.785Z,-2.36
2017-01-25T10:59:05.474Z,-2.32
2017-01-25T11:00:14.195Z,-2.25
2017-01-25T11:01:22.889Z,-2.2
2017-01-25T11:02:31.575Z,-2.2
2017-01-25T11:03:40.261Z,-2.13
2017-01-25T11:04:48.947Z,-2
2017-01-25T11:05:57.634Z,-2
2017-01-25T11:07:06.326Z,-2.05
2017-01-25T11:08:15.007Z,-1.94
2017-01-25T11:09:23.691Z,-1.84
2017-01-25T11:10:32.388Z,-1.9
2017-01-25T11:11:41.087Z,-1.89
2017-01-25T11:12:49.775Z,-1.84
2017-01-25T11:13:58.463Z,-1.82
2017-01-25T11:15:07.155Z,-1.81
2017-01-25T11:16:15.851Z,-1.78
2017-01-25T11:17:24.536Z,-1.76
2017-01-25T11:18:33.219Z,-1.69
2017-01-25T11:19:41.904Z,-1.71
2017-01-25T11:20:50.592Z,-1.72
2017-01-25T11:21:59.276Z,-1.71
2017-01-25T11:23:07.960Z,-1.75
2017-01-25T11:24:16.650Z,-1.64
2017-01-25T11:25:25.335Z,-1.78
2017-01-25T11:26:34.024Z,-1.78
2017-01-25T11:27:42.706Z,-1.75
2017-01-25T11:28:51.392Z,-1.72
2017-01-25T11:30:00.083Z,-1.72
2017-01-25T11:31:08.804Z,-1.76
2017-01-25T11:32:17.488Z,-1.68
2017-01-25T11:33:26.171Z,-1.68
2017-01-25T11:34:34.856Z,-1.71
2017-01-25T11:35:43.537Z,-1.72
2017-01-25T11:36:52.222Z,-1.63
2017-01-25T11:38:00.933Z,-1.63
2017-01-25T11:39:09.626Z,-1.68
2017-01-25T11:40:18.312Z,-1.68
2017-01-25T11:41:26.992Z,-1.66
2017-01-25T11:42:35.671Z,-1.61
2017-01-25T11:43:44.358Z,-1.63
2017-01-25T11:44:53.046Z,-1.69
2017-01-25T11:46:01.731Z,-1.64
2017-01-25T11:47:10.415Z,-1.68
2017-01-25T11:48:19.099Z,-1.74
2017-01-25T11:49:27.783Z,-1.63
2017-01-25T11:50:36.468Z,-1.75
2017-01-25T11:51:45.150Z,-1.75
2017-01-25T11:52:53.838Z,-1.72
2017-01-25T11:54:02.531Z,-1.81
2017-01-25T11:55:11.221Z,-1.79
2017-01-25T11:56:19.904Z,-1.76
2017-01-25T11:57:28.587Z,-1.78
2017-01-25T11:58:37.267Z,-1.71
2017-01-25T11:59:45.960Z,-1.75
2017-01-25T12:01:04.415Z,-1.74
2017-01-25T12:02:13.099Z,-1.74
2017-01-25T12:03:21.779Z,-1.66
2017-01-25T12:04:30.469Z,-1.68
2017-01-25T12:05:39.164Z,-1.66
2017-01-25T12:06:48.203Z,-1.64
2017-01-25T12:07:56.890Z,-1.66
2017-01-25T12:09:05.586Z,-1.58
2017-01-25T12:10:14.273Z,-1.48
2017-01-25T12:11:22.957Z,-1.48
2017-01-25T12:12:31.855Z,-1.56
2017-01-25T12:13:40.570Z,-1.5
2017-01-25T12:14:49.254Z,-1.6
2017-01-25T12:15:57.937Z,-1.56
2017-01-25T12:17:06.629Z,-1.64
2017-01-25T12:18:15.463Z,-1.71
2017-01-25T12:19:24.555Z,-1.87
2017-01-25T12:20:33.241Z,-1.9
2017-01-25T12:21:41.932Z,-1.87
2017-01-25T12:22:50.619Z,-1.86
2017-01-25T12:23:59.457Z,-1.93
2017-01-25T12:25:08.141Z,-1.84
2017-01-25T12:26:16.821Z,-1.92
2017-01-25T12:27:25.503Z,-1.82
2017-01-25T12:28:34.192Z,-1.82
2017-01-25T12:31:05.821Z,-1.99
2017-01-25T12:32:14.512Z,-2.04
2017-01-25T12:33:23.192Z,-2.07
2017-01-25T12:34:31.878Z,-1.97
2017-01-25T12:35:40.712Z,-2.05
2017-01-25T12:36:49.400Z,-1.97
2017-01-25T12:37:58.086Z,-1.9
2017-01-25T12:39:06.783Z,-1.86
2017-01-25T12:40:15.471Z,-1.79
2017-01-25T12:41:24.253Z,-1.75
2017-01-25T12:42:32.946Z,-1.79
2017-01-25T12:43:41.637Z,-1.76
2017-01-25T12:44:50.330Z,-1.81
2017-01-25T12:45:59.016Z,-1.72
2017-01-25T12:47:07.858Z,-1.75
2017-01-25T12:48:16.588Z,-1.74
2017-01-25T12:49:25.269Z,-1.63
2017-01-25T12:50:33.952Z,-1.6
2017-01-25T12:51:42.641Z,-1.63
2017-01-25T12:52:51.624Z,-1.69
2017-01-25T12:54:00.344Z,-1.66
2017-01-25T12:55:09.037Z,-1.72
2017-01-25T12:56:17.721Z,-1.74
2017-01-25T12:57:26.404Z,-1.72
2017-01-25T12:58:35.204Z,-1.6
2017-01-25T12:59:43.885Z,-1.57
2017-01-25T13:00:52.566Z,-1.63
2017-01-25T13:02:01.249Z,-1.61
2017-01-25T13:03:09.933Z,-1.6
2017-01-25T13:04:18.772Z,-1.69
2017-01-25T13:05:27.458Z,-1.74
2017-01-25T13:06:36.145Z,-1.68
2017-01-25T13:07:44.831Z,-1.72
2017-01-25T13:08:53.518Z,-1.74
2017-01-25T13:10:02.306Z,-1.75
2017-01-25T13:11:10.995Z,-1.63
2017-01-25T13:12:19.681Z,-1.64
2017-01-25T13:13:28.366Z,-1.68
2017-01-25T13:14:37.055Z,-1.84
2017-01-25T13:15:45.851Z,-1.75
2017-01-25T13:16:54.539Z,-1.78
2017-01-25T13:18:03.227Z,-1.75
2017-01-25T13:19:11.908Z,-1.76
2017-01-25T13:20:20.604Z,-1.64
2017-01-25T13:21:29.396Z,-1.74
2017-01-25T13:22:38.086Z,-1.78
2017-01-25T13:23:46.769Z,-1.72
2017-01-25T13:24:55.453Z,-1.75
2017-01-25T13:26:04.145Z,-1.79
2017-01-25T13:27:13.134Z,-1.78
2017-01-25T13:28:21.818Z,-1.64
2017-01-25T13:29:30.506Z,-1.68
2017-01-25T13:30:39.191Z,-1.74
2017-01-25T13:31:47.876Z,-1.66
2017-01-25T13:32:56.913Z,-1.78
2017-01-25T13:34:05.606Z,-1.75
2017-01-25T13:35:14.296Z,-1.81
2017-01-25T13:36:22.985Z,-1.81
2017-01-25T13:37:31.676Z,-1.87
2017-01-25T13:38:40.467Z,-2.08
2017-01-25T13:39:49.157Z,-2.2
2017-01-25T13:40:57.851Z,-2.25
2017-01-25T13:42:06.544Z,-2.39
2017-01-25T13:43:15.233Z,-2.48
2017-01-25T13:44:24.067Z,-2.36
2017-01-25T13:45:32.762Z,-2.44
2017-01-25T13:46:41.464Z,-2.42
2017-01-25T13:47:50.151Z,-2.55
2017-01-25T13:48:58.843Z,-2.54
2017-01-25T13:50:07.553Z,-2.54
2017-01-25T13:51:16.235Z,-2.52
2017-01-25T13:52:24.920Z,-2.52
2017-01-25T13:53:33.608Z,-2.54
2017-01-25T13:54:42.288Z,-2.5
2017-01-25T13:55:50.974Z,-2.55
2017-01-25T13:56:59.682Z,-2.63
2017-01-25T13:58:08.766Z,-2.66
2017-01-25T13:59:17.456Z,-2.7
2017-01-25T14:00:26.137Z,-2.73
2017-01-25T14:01:34.828Z,-2.65
2017-01-25T14:02:43.515Z,-2.63
2017-01-25T14:03:52.202Z,-2.63
2017-01-25T14:05:00.890Z,-2.72
2017-01-25T14:06:09.584Z,-2.7
2017-01-25T14:07:18.518Z,-2.66
2017-01-25T14:08:27.208Z,-2.66
2017-01-25T14:09:35.890Z,-2.68
2017-01-25T14:10:44.578Z,-2.62
2017-01-25T14:11:53.658Z,-2.54
2017-01-25T14:13:02.701Z,-2.55
2017-01-25T14:14:11.385Z,-2.55
2017-01-25T14:15:20.071Z,-2.58
2017-01-25T14:16:28.764Z,-2.62
2017-01-25T14:17:37.464Z,-2.52
2017-01-25T14:18:46.401Z,-2.57
2017-01-25T14:19:55.093Z,-2.51
2017-01-25T14:21:03.777Z,-2.66
2017-01-25T14:22:12.468Z,-2.52
2017-01-25T14:23:21.554Z,-2.54
2017-01-25T14:24:30.605Z,-2.61
2017-01-25T14:25:39.692Z,-2.52
2017-01-25T14:26:48.384Z,-2.54
2017-01-25T14:27:57.072Z,-2.54
2017-01-25T14:29:05.770Z,-2.55
2017-01-25T14:30:14.707Z,-2.57
2017-01-25T14:31:23.792Z,-2.55
2017-01-25T14:32:32.477Z,-2.54
2017-01-25T14:33:41.167Z,-2.55
2017-01-25T14:34:49.855Z,-2.57
2017-01-25T14:35:58.901Z,-2.52
2017-01-25T14:37:07.591Z,-2.55
2017-01-25T14:38:16.274Z,-2.52
2017-01-25T14:39:24.960Z,-2.55
2017-01-25T14:40:33.646Z,-2.52
2017-01-25T14:41:42.583Z,-2.47
2017-01-25T14:42:51.262Z,-2.45
2017-01-25T14:43:59.944Z,-2.36
2017-01-25T14:45:08.631Z,-2.45
2017-01-25T14:46:17.318Z,-2.4
2017-01-25T14:47:26.001Z,-2.36
2017-01-25T14:48:34.687Z,-2.42
2017-01-25T14:49:43.374Z,-2.32
2017-01-25T14:50:52.054Z,-2.26